Time,TemperatureF,DewpointF,PressureIn,WindDirection,WindDirectionDegrees,WindSpeedMPH,WindSpeedGustMPH,Humidity,HourlyPrecipIn,Conditions,Clouds,dailyrainin,SoftwareType,DateUTC
2013-01-25 00:00:00,19.0,-5.3,30.47,NNE,22,3.8,3.8,33,0.00,,,22.18,WeatherCatV1.11B39,2013-01-25 05:00:00,
2013-01-25 00:01:00,19.0,-5.3,30.47,NNE,22,3.8,3.8,33,0.00,,,22.18,WeatherCatV1.11B39,2013-01-25 05:01:00,
2013-01-25 00:05:00,19.0,-5.3,30.46,North,0,2.2,2.2,33,0.00,,,22.18,WeatherCatV1.11B39,2013-01-25 05:05:00,
2013-01-25 00:11:00,18.9,-4.8,30.46,NE,45,2.2,2.2,34,0.00,,,22.18,WeatherCatV1.11B39,2013-01-25 05:11:00,
2013-01-25 00:16:00,18.9,-5.4,30.47,North,0,2.2,3.1,33,0.00,,,22.18,WeatherCatV1.11B39,2013-01-25 05:16:00,
2013-01-25 00:21:00,18.7,-5.6,30.46,North,0,2.2,4.5,33,0.00,,,22.18,WeatherCatV1.11B39,2013-01-25 05:21:00,
2013-01-25 00:26:00,18.7,-5.6,30.46,North,0,3.1,3.1,33,0.00,,,22.18,WeatherCatV1.11B39,2013-01-25 05:26:00,
2013-01-25 00:31:00,18.5,-5.1,30.46,NNW,337,3.8,3.8,34,0.00,,,22.18,WeatherCatV1.11B39,2013-01-25 05:31:00,
2013-01-25 00:37:00,18.3,-5.3,30.46,North,0,2.2,3.1,34,0.00,,,22.18,WeatherCatV1.11B39,2013-01-25 05:37:00,
2013-01-25 00:42:00,18.5,-5.1,30.46,NW,315,2.2,2.2,34,0.00,,,22.18,WeatherCatV1.11B39,2013-01-25 05:42:00,
2013-01-25 00:47:00,18.5,-5.8,30.46,North,0,3.1,3.1,33,0.00,,,22.18,WeatherCatV1.11B39,2013-01-25 05:47:00,
2013-01-25 00:52:00,18.3,-5.3,30.46,North,0,3.1,3.1,34,0.00,,,22.18,WeatherCatV1.11B39,2013-01-25 05:52:00,
2013-01-25 00:58:00,18.3,-5.9,30.46,NE,45,3.1,3.1,33,0.00,,,22.18,WeatherCatV1.11B39,2013-01-25 05:58:00,
2013-01-25 01:03:00,18.3,-5.9,30.46,North,0,2.2,2.2,33,0.00,,,22.18,WeatherCatV1.11B39,2013-01-25 06:03:00,
2013-01-25 01:08:00,18.1,-6.1,30.46,North,0,3.1,3.1,33,0.00,,,22.18,WeatherCatV1.11B39,2013-01-25 06:08:00,
2013-01-25 01:13:00,18.1,-6.1,30.46,North,0,3.8,3.8,33,0.00,,,22.18,WeatherCatV1.11B39,2013-01-25 06:13:00,
2013-01-25 01:19:00,18.1,-6.1,30.46,NNE,22,4.5,4.5,33,0.00,,,22.18,WeatherCatV1.11B39,2013-01-25 06:19:00,
2013-01-25 01:24:00,18.0,-6.2,30.46,North,0,3.1,3.8,33,0.00,,,22.18,WeatherCatV1.11B39,2013-01-25 06:24:00,
2013-01-25 01:29:00,18.0,-6.2,30.46,North,0,2.2,2.2,33,0.00,,,22.18,WeatherCatV1.11B39,2013-01-25 06:29:00,
2013-01-25 01:35:00,18.0,-6.2,30.46,North,0,3.1,4.5,33,0.00,,,22.18,WeatherCatV1.11B39,2013-01-25 06:35:00,
2013-01-25 01:40:00,18.0,-6.2,30.45,North,0,3.8,3.8,33,0.00,,,22.18,WeatherCatV1.11B39,2013-01-25 06:40:00,
2013-01-25 01:45:00,18.0,-6.2,30.45,West,270,2.2,2.2,33,0.00,,,22.18,WeatherCatV1.11B39,2013-01-25 06:45:00,
2013-01-25 01:50:00,17.8,-6.4,30.45,North,0,3.8,3.8,33,0.00,,,22.18,WeatherCatV1.11B39,2013-01-25 06:50:00,
2013-01-25 01:56:00,17.6,-6.6,30.45,NNW,337,2.2,4.5,33,0.00,,,22.18,WeatherCatV1.11B39,2013-01-25 06:56:00,
2013-01-25 02:01:00,17.6,-6.6,30.45,WSW,247,2.2,3.1,33,0.00,,,22.18,WeatherCatV1.11B39,2013-01-25 07:01:00,
2013-01-25 02:06:00,17.6,-5.9,30.46,NNE,22,3.8,3.8,34,0.00,,,22.18,WeatherCatV1.11B39,2013-01-25 07:06:00,
2013-01-25 02:11:00,17.6,-6.6,30.46,NE,45,3.1,3.8,33,0.00,,,22.18,WeatherCatV1.11B39,2013-01-25 07:11:00,
2013-01-25 02:17:00,17.6,-6.6,30.45,North,0,3.1,3.1,33,0.00,,,22.18,WeatherCatV1.11B39,2013-01-25 07:17:00,
2013-01-25 02:22:00,17.6,-6.6,30.46,North,0,3.1,3.1,33,0.00,,,22.18,WeatherCatV1.11B39,2013-01-25 07:22:00,
2013-01-25 02:27:00,17.6,-6.6,30.45,North,0,1.6,2.2,33,0.00,,,22.18,WeatherCatV1.11B39,2013-01-25 07:27:00,
2013-01-25 02:32:00,17.4,-6.1,30.45,North,0,3.1,3.1,34,0.00,,,22.18,WeatherCatV1.11B39,2013-01-25 07:32:00,
2013-01-25 02:38:00,17.4,-5.5,30.45,North,0,2.2,2.2,35,0.00,,,22.18,WeatherCatV1.11B39,2013-01-25 07:38:00,
2013-01-25 02:43:00,17.2,-5.7,30.45,SE,135,0.7,0.7,35,0.00,,,22.18,WeatherCatV1.11B39,2013-01-25 07:43:00,
2013-01-25 02:48:00,17.2,-5.1,30.45,NE,45,2.2,2.2,36,0.00,,,22.18,WeatherCatV1.11B39,2013-01-25 07:48:00,
2013-01-25 02:53:00,17.2,-5.1,30.44,North,0,2.2,3.1,36,0.00,,,22.18,WeatherCatV1.11B39,2013-01-25 07:53:00,
2013-01-25 02:59:00,17.2,-5.1,30.45,North,0,1.6,1.6,36,0.00,,,22.18,WeatherCatV1.11B39,2013-01-25 07:59:00,
2013-01-25 03:04:00,17.4,-4.9,30.45,North,0,1.6,1.6,36,0.00,,,22.18,WeatherCatV1.11B39,2013-01-25 08:04:00,
2013-01-25 03:09:00,17.2,-5.1,30.44,North,0,2.2,2.2,36,0.00,,,22.18,WeatherCatV1.11B39,2013-01-25 08:09:00,
2013-01-25 03:14:00,17.2,-5.1,30.44,North,0,2.2,3.1,36,0.00,,,22.18,WeatherCatV1.11B39,2013-01-25 08:14:00,
2013-01-25 03:20:00,17.2,-5.1,30.43,North,0,2.2,2.2,36,0.00,,,22.18,WeatherCatV1.11B39,2013-01-25 08:20:00,
2013-01-25 03:25:00,17.2,-5.1,30.43,NE,45,1.6,1.6,36,0.00,,,22.18,WeatherCatV1.11B39,2013-01-25 08:25:00,
2013-01-25 03:30:00,17.1,-4.7,30.43,NE,45,1.6,2.2,37,0.00,,,22.18,WeatherCatV1.11B39,2013-01-25 08:30:00,
2013-01-25 03:35:00,16.9,-4.8,30.43,North,0,2.2,2.2,37,0.00,,,22.18,WeatherCatV1.11B39,2013-01-25 08:35:00,
2013-01-25 03:41:00,16.9,-4.3,30.43,NE,45,0.7,1.6,38,0.00,,,22.18,WeatherCatV1.11B39,2013-01-25 08:41:00,
2013-01-25 03:46:00,16.9,-3.7,30.43,NE,45,3.1,3.1,39,0.00,,,22.18,WeatherCatV1.11B39,2013-01-25 08:46:00,
2013-01-25 03:51:00,16.9,-4.3,30.42,NW,315,1.6,3.1,38,0.00,,,22.18,WeatherCatV1.11B39,2013-01-25 08:51:00,
2013-01-25 03:56:00,16.9,-4.3,30.43,SE,135,0.7,0.7,38,0.00,,,22.18,WeatherCatV1.11B39,2013-01-25 08:56:00,
2013-01-25 04:02:00,17.1,-3.6,30.43,North,0,1.6,1.6,39,0.00,,,22.18,WeatherCatV1.11B39,2013-01-25 09:02:00,
2013-01-25 04:07:00,16.9,-3.7,30.43,NE,45,2.2,2.2,39,0.00,,,22.18,WeatherCatV1.11B39,2013-01-25 09:07:00,
2013-01-25 04:12:00,17.1,-3.6,30.44,NNW,337,2.2,2.2,39,0.00,,,22.18,WeatherCatV1.11B39,2013-01-25 09:12:00,
2013-01-25 04:17:00,17.1,-3.1,30.44,North,0,2.2,2.2,40,0.00,,,22.18,WeatherCatV1.11B39,2013-01-25 09:17:00,
2013-01-25 04:23:00,17.1,-3.1,30.43,NE,45,1.6,2.2,40,0.00,,,22.18,WeatherCatV1.11B39,2013-01-25 09:23:00,
2013-01-25 04:28:00,17.2,-2.9,30.43,NW,315,1.6,1.6,40,0.00,,,22.18,WeatherCatV1.11B39,2013-01-25 09:28:00,
2013-01-25 04:33:00,17.2,-2.9,30.43,North,0,2.2,2.2,40,0.00,,,22.18,WeatherCatV1.11B39,2013-01-25 09:33:00,
2013-01-25 04:38:00,17.2,-3.4,30.42,North,0,2.2,3.1,39,0.00,,,22.18,WeatherCatV1.11B39,2013-01-25 09:38:00,
2013-01-25 04:44:00,17.2,-3.4,30.42,North,0,2.2,2.2,39,0.00,,,22.18,WeatherCatV1.11B39,2013-01-25 09:44:00,
2013-01-25 04:49:00,17.4,-2.7,30.42,North,0,3.1,3.1,40,0.00,,,22.18,WeatherCatV1.11B39,2013-01-25 09:49:00,
2013-01-25 04:54:00,17.4,-3.3,30.43,NE,45,2.2,3.8,39,0.00,,,22.18,WeatherCatV1.11B39,2013-01-25 09:54:00,
2013-01-25 04:59:00,17.4,-3.3,30.44,NE,45,2.2,3.8,39,0.00,,,22.18,WeatherCatV1.11B39,2013-01-25 09:59:00,
2013-01-25 05:05:00,17.4,-3.8,30.43,North,0,2.2,3.8,38,0.00,,,22.18,WeatherCatV1.11B39,2013-01-25 10:05:00,
2013-01-25 05:10:00,17.4,-4.4,30.43,NNE,22,3.1,3.1,37,0.00,,,22.18,WeatherCatV1.11B39,2013-01-25 10:10:00,
2013-01-25 05:15:00,17.4,-4.4,30.43,NNW,337,2.2,3.8,37,0.00,,,22.18,WeatherCatV1.11B39,2013-01-25 10:15:00,
2013-01-25 05:20:00,17.6,-4.8,30.44,North,0,3.1,3.1,36,0.00,,,22.18,WeatherCatV1.11B39,2013-01-25 10:20:00,
2013-01-25 05:26:00,17.6,-4.2,30.45,NW,315,2.2,2.2,37,0.00,,,22.18,WeatherCatV1.11B39,2013-01-25 10:26:00,
2013-01-25 05:31:00,17.6,-4.2,30.44,NW,315,2.2,2.2,37,0.00,,,22.18,WeatherCatV1.11B39,2013-01-25 10:31:00,
2013-01-25 05:36:00,17.6,-4.2,30.43,NW,315,2.2,2.2,37,0.00,,,22.18,WeatherCatV1.11B39,2013-01-25 10:36:00,
2013-01-25 05:41:00,17.6,-4.2,30.43,NE,45,1.6,3.1,37,0.00,,,22.18,WeatherCatV1.11B39,2013-01-25 10:41:00,
2013-01-25 05:47:00,17.6,-3.6,30.42,North,0,3.1,3.1,38,0.00,,,22.18,WeatherCatV1.11B39,2013-01-25 10:47:00,
2013-01-25 05:52:00,17.6,-3.6,30.43,North,0,3.1,3.8,38,0.00,,,22.18,WeatherCatV1.11B39,2013-01-25 10:52:00,
2013-01-25 05:57:00,17.6,-4.2,30.42,NNE,22,3.1,3.1,37,0.00,,,22.18,WeatherCatV1.11B39,2013-01-25 10:57:00,
2013-01-25 06:03:00,17.6,-3.6,30.43,NW,315,1.6,1.6,38,0.00,,,22.18,WeatherCatV1.11B39,2013-01-25 11:03:00,
2013-01-25 06:08:00,17.6,-4.2,30.43,NE,45,1.6,1.6,37,0.00,,,22.18,WeatherCatV1.11B39,2013-01-25 11:08:00,
2013-01-25 06:13:00,17.8,-4.0,30.43,North,0,2.2,2.2,37,0.00,,,22.18,WeatherCatV1.11B39,2013-01-25 11:13:00,
2013-01-25 06:18:00,17.8,-3.5,30.42,North,0,1.6,1.6,38,0.00,,,22.18,WeatherCatV1.11B39,2013-01-25 11:18:00,
2013-01-25 06:24:00,17.6,-3.6,30.42,SW,225,0.7,0.7,38,0.00,,,22.18,WeatherCatV1.11B39,2013-01-25 11:24:00,
2013-01-25 06:29:00,17.8,-3.5,30.41,North,0,1.6,1.6,38,0.00,,,22.18,WeatherCatV1.11B39,2013-01-25 11:29:00,
2013-01-25 06:34:00,17.6,-3.6,30.41,North,0,1.6,1.6,38,0.00,,,22.18,WeatherCatV1.11B39,2013-01-25 11:34:00,
2013-01-25 06:39:00,17.8,-2.9,30.42,North,0,1.6,1.6,39,0.00,,,22.18,WeatherCatV1.11B39,2013-01-25 11:39:00,
2013-01-25 06:45:00,17.6,-3.1,30.42,NE,45,0.7,0.7,39,0.00,,,22.18,WeatherCatV1.11B39,2013-01-25 11:45:00,
2013-01-25 06:50:00,17.6,-3.1,30.42,North,0,1.6,1.6,39,0.00,,,22.18,WeatherCatV1.11B39,2013-01-25 11:50:00,
2013-01-25 06:55:00,17.6,-3.6,30.42,North,0,1.6,2.2,38,0.00,,,22.18,WeatherCatV1.11B39,2013-01-25 11:55:00,
2013-01-25 07:00:00,17.8,-3.5,30.42,NNW,337,0.7,0.7,38,0.00,,,22.18,WeatherCatV1.11B39,2013-01-25 12:00:00,
2013-01-25 07:06:00,17.6,-3.6,30.41,NW,315,0.7,1.6,38,0.00,,,22.18,WeatherCatV1.11B39,2013-01-25 12:06:00,
2013-01-25 07:11:00,17.6,-3.6,30.41,West,270,1.6,1.6,38,0.00,,,22.18,WeatherCatV1.11B39,2013-01-25 12:11:00,
2013-01-25 07:16:00,17.6,-3.6,30.42,North,0,0.7,1.6,38,0.00,,,22.18,WeatherCatV1.11B39,2013-01-25 12:16:00,
2013-01-25 07:21:00,17.4,-2.7,30.42,NW,315,0.7,0.7,40,0.00,,,22.18,WeatherCatV1.11B39,2013-01-25 12:21:00,
2013-01-25 07:27:00,17.4,-3.3,30.42,North,0,0.7,1.6,39,0.00,,,22.18,WeatherCatV1.11B39,2013-01-25 12:27:00,
2013-01-25 07:32:00,17.2,-2.9,30.41,North,0,0.0,0.0,40,0.00,,,22.18,WeatherCatV1.11B39,2013-01-25 12:32:00,
2013-01-25 07:37:00,17.2,-2.9,30.42,North,0,0.0,0.0,40,0.00,,,22.18,WeatherCatV1.11B39,2013-01-25 12:37:00,
2013-01-25 07:43:00,17.1,-2.5,30.40,North,0,0.0,0.0,41,0.00,,,22.18,WeatherCatV1.11B39,2013-01-25 12:43:00,
2013-01-25 07:48:00,17.1,-2.0,30.41,North,0,0.7,0.7,42,0.00,,,22.18,WeatherCatV1.11B39,2013-01-25 12:48:00,
2013-01-25 07:53:00,17.2,-1.9,30.42,North,0,0.0,0.0,42,0.00,,,22.18,WeatherCatV1.11B39,2013-01-25 12:53:00,
2013-01-25 07:58:00,17.4,-1.7,30.42,North,0,0.0,0.0,42,0.00,,,22.18,WeatherCatV1.11B39,2013-01-25 12:58:00,
2013-01-25 08:04:00,17.8,-1.9,30.42,North,0,0.0,0.0,41,0.00,,,22.18,WeatherCatV1.11B39,2013-01-25 13:04:00,
2013-01-25 08:09:00,18.0,-1.7,30.42,North,0,0.7,0.7,41,0.00,,,22.18,WeatherCatV1.11B39,2013-01-25 13:09:00,
2013-01-25 08:14:00,18.1,-1.6,30.42,NW,315,0.7,1.6,41,0.00,,,22.18,WeatherCatV1.11B39,2013-01-25 13:14:00,
2013-01-25 08:19:00,18.5,-1.2,30.41,NW,315,0.7,0.7,41,0.00,,,22.18,WeatherCatV1.11B39,2013-01-25 13:19:00,
2013-01-25 08:25:00,18.9,-0.9,30.41,North,0,0.7,0.7,41,0.00,,,22.18,WeatherCatV1.11B39,2013-01-25 13:25:00,
2013-01-25 08:30:00,19.0,-1.3,30.41,North,0,1.6,1.6,40,0.00,,,22.18,WeatherCatV1.11B39,2013-01-25 13:30:00,
2013-01-25 08:35:00,19.2,-1.6,30.41,NE,45,1.6,1.6,39,0.00,,,22.18,WeatherCatV1.11B39,2013-01-25 13:35:00,
2013-01-25 08:40:00,19.4,0.1,30.40,North,0,1.6,1.6,42,0.00,,,22.18,WeatherCatV1.11B39,2013-01-25 13:40:00,
2013-01-25 08:46:00,19.6,-1.3,30.40,NE,45,2.2,2.2,39,0.00,,,22.18,WeatherCatV1.11B39,2013-01-25 13:46:00,
2013-01-25 08:51:00,19.6,-1.9,30.40,North,0,0.7,1.6,38,0.00,,,22.18,WeatherCatV1.11B39,2013-01-25 13:51:00,
2013-01-25 08:56:00,19.6,-1.9,30.40,North,0,1.6,1.6,38,0.00,,,22.18,WeatherCatV1.11B39,2013-01-25 13:56:00,
2013-01-25 09:02:00,19.8,-1.7,30.39,SW,225,0.7,0.7,38,0.00,,,22.18,WeatherCatV1.11B39,2013-01-25 14:02:00,
2013-01-25 09:07:00,20.1,-1.9,30.38,NW,315,2.2,2.2,37,0.00,,,22.18,WeatherCatV1.11B39,2013-01-25 14:07:00,
2013-01-25 09:12:00,20.3,-2.3,30.38,NE,45,0.7,0.7,36,0.00,,,22.18,WeatherCatV1.11B39,2013-01-25 14:12:00,
2013-01-25 09:17:00,20.5,-2.2,30.38,NE,45,0.7,0.7,36,0.00,,,22.18,WeatherCatV1.11B39,2013-01-25 14:17:00,
2013-01-25 09:22:00,20.8,-2.5,30.37,South,180,0.7,0.7,35,0.00,,,22.18,WeatherCatV1.11B39,2013-01-25 14:22:00,
2013-01-25 09:28:00,21.0,-1.7,30.36,South,180,1.6,1.6,36,0.00,,,22.18,WeatherCatV1.11B39,2013-01-25 14:28:00,
2013-01-25 09:33:00,21.2,-2.1,30.36,SW,225,1.6,1.6,35,0.00,,,22.18,WeatherCatV1.11B39,2013-01-25 14:33:00,
2013-01-25 09:38:00,21.2,-2.7,30.36,South,180,1.6,1.6,34,0.00,,,22.18,WeatherCatV1.11B39,2013-01-25 14:38:00,
2013-01-25 09:44:00,21.6,-2.4,30.36,South,180,0.0,0.7,34,0.00,,,22.18,WeatherCatV1.11B39,2013-01-25 14:44:00,
2013-01-25 09:49:00,21.9,-2.1,30.36,SW,225,1.6,1.6,34,0.00,,,22.18,WeatherCatV1.11B39,2013-01-25 14:49:00,
2013-01-25 09:54:00,22.3,-3.0,30.36,South,180,1.6,1.6,32,0.00,,,22.18,WeatherCatV1.11B39,2013-01-25 14:54:00,
2013-01-25 09:59:00,22.5,-4.2,30.36,South,180,0.7,1.6,30,0.00,,,22.18,WeatherCatV1.11B39,2013-01-25 14:59:00,
2013-01-25 10:05:00,22.8,-3.2,30.37,SW,225,1.6,2.2,31,0.00,,,22.18,WeatherCatV1.11B39,2013-01-25 15:05:00,
2013-01-25 10:10:00,23.0,-4.5,30.36,South,180,0.7,1.6,29,0.00,,,22.18,WeatherCatV1.11B39,2013-01-25 15:10:00,
2013-01-25 10:15:00,23.2,-4.3,30.36,South,180,0.7,1.6,29,0.00,,,22.18,WeatherCatV1.11B39,2013-01-25 15:15:00,
2013-01-25 10:20:00,23.0,-5.2,30.36,South,180,1.6,1.6,28,0.00,,,22.18,WeatherCatV1.11B39,2013-01-25 15:20:00,
2013-01-25 10:26:00,23.0,-6.7,30.36,South,180,1.6,1.6,26,0.00,,,22.18,WeatherCatV1.11B39,2013-01-25 15:26:00,
2013-01-25 10:31:00,22.8,-6.1,30.36,SW,225,0.7,0.7,27,0.00,,,22.18,WeatherCatV1.11B39,2013-01-25 15:31:00,
2013-01-25 10:36:00,23.0,-5.9,30.35,SSW,202,2.2,2.2,27,0.00,,,22.18,WeatherCatV1.11B39,2013-01-25 15:36:00,
2013-01-25 10:41:00,23.0,-4.5,30.34,NW,315,0.0,0.0,29,0.00,,,22.18,WeatherCatV1.11B39,2013-01-25 15:41:00,
2013-01-25 10:47:00,23.4,-4.2,30.34,South,180,0.7,0.7,29,0.00,,,22.18,WeatherCatV1.11B39,2013-01-25 15:47:00,
2013-01-25 10:52:00,23.4,-4.2,30.34,South,180,1.6,1.6,29,0.00,,,22.18,WeatherCatV1.11B39,2013-01-25 15:52:00,
2013-01-25 10:57:00,23.4,-4.9,30.34,West,270,0.7,0.7,28,0.00,,,22.18,WeatherCatV1.11B39,2013-01-25 15:57:00,
2013-01-25 11:02:00,23.5,-4.7,30.33,South,180,1.6,1.6,28,0.00,,,22.18,WeatherCatV1.11B39,2013-01-25 16:02:00,
2013-01-25 11:08:00,23.7,-6.1,30.33,SW,225,0.7,2.2,26,0.00,,,22.18,WeatherCatV1.11B39,2013-01-25 16:08:00,
2013-01-25 11:13:00,23.7,-6.1,30.33,South,180,1.6,1.6,26,0.00,,,22.18,WeatherCatV1.11B39,2013-01-25 16:13:00,
2013-01-25 11:18:00,23.7,-6.1,30.33,SW,225,2.2,3.1,26,0.00,,,22.18,WeatherCatV1.11B39,2013-01-25 16:18:00,
2013-01-25 11:23:00,23.7,-6.1,30.33,South,180,1.6,1.6,26,0.00,,,22.18,WeatherCatV1.11B39,2013-01-25 16:23:00,
2013-01-25 11:29:00,23.7,-6.1,30.32,West,270,1.6,1.6,26,0.00,,,22.18,WeatherCatV1.11B39,2013-01-25 16:29:00,
2013-01-25 11:34:00,23.7,-6.1,30.32,South,180,0.7,3.1,26,0.00,,,22.18,WeatherCatV1.11B39,2013-01-25 16:34:00,
2013-01-25 11:39:00,23.5,-6.2,30.32,South,180,0.7,3.1,26,0.00,,,22.18,WeatherCatV1.11B39,2013-01-25 16:39:00,
2013-01-25 11:44:00,23.5,-6.2,30.31,East,90,2.2,2.2,26,0.00,,,22.18,WeatherCatV1.11B39,2013-01-25 16:44:00,
2013-01-25 11:50:00,23.5,-6.2,30.31,South,180,0.7,0.7,26,0.00,,,22.18,WeatherCatV1.11B39,2013-01-25 16:50:00,
2013-01-25 11:55:00,23.4,-6.4,30.31,East,90,3.1,3.1,26,0.00,,,22.18,WeatherCatV1.11B39,2013-01-25 16:55:00,
2013-01-25 12:00:00,23.4,-5.6,30.30,South,180,1.6,1.6,27,0.00,,,22.18,WeatherCatV1.11B39,2013-01-25 17:00:00,
2013-01-25 12:05:00,23.2,-5.8,30.29,South,180,1.6,3.8,27,0.00,,,22.18,WeatherCatV1.11B39,2013-01-25 17:05:00,
2013-01-25 12:11:00,23.2,-5.8,30.28,South,180,2.2,2.2,27,0.00,,,22.18,WeatherCatV1.11B39,2013-01-25 17:11:00,
2013-01-25 12:16:00,23.4,-4.9,30.28,South,180,0.7,0.7,28,0.00,,,22.18,WeatherCatV1.11B39,2013-01-25 17:16:00,
2013-01-25 12:21:00,23.5,-4.7,30.27,South,180,1.6,1.6,28,0.00,,,22.18,WeatherCatV1.11B39,2013-01-25 17:21:00,
2013-01-25 12:26:00,23.5,-4.0,30.27,South,180,1.6,1.6,29,0.00,,,22.18,WeatherCatV1.11B39,2013-01-25 17:26:00,
2013-01-25 12:32:00,23.5,-4.0,30.26,SW,225,1.6,1.6,29,0.00,,,22.18,WeatherCatV1.11B39,2013-01-25 17:32:00,
2013-01-25 12:37:00,23.7,-3.8,30.26,NNW,337,0.7,0.7,29,0.00,,,22.18,WeatherCatV1.11B39,2013-01-25 17:37:00,
2013-01-25 12:42:00,23.5,-4.0,30.25,North,0,3.1,3.1,29,0.00,,,22.18,WeatherCatV1.11B39,2013-01-25 17:42:00,
2013-01-25 12:47:00,23.4,-3.4,30.25,South,180,0.7,0.7,30,0.00,,,22.18,WeatherCatV1.11B39,2013-01-25 17:47:00,
2013-01-25 12:53:00,23.5,-2.6,30.24,SW,225,0.7,1.6,31,0.00,,,22.18,WeatherCatV1.11B39,2013-01-25 17:53:00,
2013-01-25 12:58:00,23.7,-2.4,30.24,South,180,1.6,2.2,31,0.00,,,22.18,WeatherCatV1.11B39,2013-01-25 17:58:00,
2013-01-25 13:03:00,23.7,-3.1,30.23,SE,135,1.6,1.6,30,0.00,,,22.18,WeatherCatV1.11B39,2013-01-25 18:03:00,
2013-01-25 13:08:00,23.5,-2.6,30.22,WNW,292,0.7,0.7,31,0.00,,,22.18,WeatherCatV1.11B39,2013-01-25 18:08:00,
2013-01-25 13:14:00,23.5,-1.9,30.22,SE,135,1.6,2.2,32,0.00,,,22.18,WeatherCatV1.11B39,2013-01-25 18:14:00,
2013-01-25 13:19:00,23.5,-1.9,30.21,South,180,2.2,2.2,32,0.00,,,22.18,WeatherCatV1.11B39,2013-01-25 18:19:00,
2013-01-25 13:24:00,23.5,-1.3,30.21,NW,315,0.7,0.7,33,0.00,,,22.18,WeatherCatV1.11B39,2013-01-25 18:24:00,
2013-01-25 13:29:00,23.4,-2.1,30.20,SW,225,2.2,3.1,32,0.00,,,22.18,WeatherCatV1.11B39,2013-01-25 18:29:00,
2013-01-25 13:35:00,23.4,-1.4,30.19,South,180,2.2,2.2,33,0.00,,,22.18,WeatherCatV1.11B39,2013-01-25 18:35:00,
2013-01-25 13:40:00,23.4,-1.4,30.19,South,180,0.7,1.6,33,0.00,,,22.18,WeatherCatV1.11B39,2013-01-25 18:40:00,
2013-01-25 13:45:00,23.5,-0.7,30.18,South,180,2.2,2.2,34,0.00,,,22.18,WeatherCatV1.11B39,2013-01-25 18:45:00,
2013-01-25 13:50:00,23.9,-0.3,30.17,South,180,3.1,3.1,34,0.00,,,22.18,WeatherCatV1.11B39,2013-01-25 18:50:00,
2013-01-25 13:56:00,23.9,-1.0,30.17,SW,225,0.7,0.7,33,0.00,,,22.18,WeatherCatV1.11B39,2013-01-25 18:56:00,
2013-01-25 14:01:00,23.9,-1.0,30.17,South,180,2.2,2.2,33,0.00,,,22.18,WeatherCatV1.11B39,2013-01-25 19:01:00,
2013-01-25 14:06:00,23.9,-1.0,30.17,SSW,202,2.2,2.2,33,0.00,,,22.18,WeatherCatV1.11B39,2013-01-25 19:06:00,
2013-01-25 14:12:00,23.7,-0.5,30.17,South,180,1.6,1.6,34,0.00,,,22.18,WeatherCatV1.11B39,2013-01-25 19:12:00,
2013-01-25 14:17:00,23.4,1.0,30.17,SE,135,0.7,1.6,37,0.00,,,22.18,WeatherCatV1.11B39,2013-01-25 19:17:00,
2013-01-25 14:22:00,22.8,4.7,30.16,South,180,1.6,1.6,45,0.00,,,22.18,WeatherCatV1.11B39,2013-01-25 19:22:00,
2013-01-25 14:27:00,22.3,5.6,30.15,South,180,3.8,3.8,48,0.00,,,22.18,WeatherCatV1.11B39,2013-01-25 19:27:00,
2013-01-25 14:33:00,22.1,6.8,30.15,SSE,157,2.2,6.9,51,0.00,,,22.18,WeatherCatV1.11B39,2013-01-25 19:33:00,
2013-01-25 14:38:00,21.7,8.1,30.14,SW,225,2.2,2.2,55,0.00,,,22.18,WeatherCatV1.11B39,2013-01-25 19:38:00,
2013-01-25 14:43:00,21.6,8.7,30.15,South,180,2.2,2.2,57,0.00,,,22.18,WeatherCatV1.11B39,2013-01-25 19:43:00,
2013-01-25 14:48:00,21.4,9.7,30.14,West,270,3.8,3.8,60,0.00,,,22.18,WeatherCatV1.11B39,2013-01-25 19:48:00,
2013-01-25 14:54:00,21.0,10.4,30.14,SW,225,3.1,3.1,63,0.00,,,22.18,WeatherCatV1.11B39,2013-01-25 19:54:00,
2013-01-25 14:59:00,21.0,10.4,30.14,West,270,3.1,3.1,63,0.00,,,22.18,WeatherCatV1.11B39,2013-01-25 19:59:00,
2013-01-25 15:04:00,21.0,10.8,30.15,South,180,1.6,1.6,64,0.00,,,22.18,WeatherCatV1.11B39,2013-01-25 20:04:00,
2013-01-25 15:09:00,21.4,11.1,30.14,South,180,1.6,1.6,64,0.00,,,22.18,WeatherCatV1.11B39,2013-01-25 20:09:00,
2013-01-25 15:15:00,21.4,10.8,30.14,South,180,1.6,1.6,63,0.00,,,22.18,WeatherCatV1.11B39,2013-01-25 20:15:00,
2013-01-25 15:20:00,21.6,10.2,30.14,South,180,1.6,2.2,61,0.00,,,22.18,WeatherCatV1.11B39,2013-01-25 20:20:00,
2013-01-25 15:25:00,21.7,10.0,30.14,SW,225,1.6,1.6,60,0.00,,,22.18,WeatherCatV1.11B39,2013-01-25 20:25:00,
2013-01-25 15:30:00,21.9,9.8,30.14,South,180,2.2,2.2,59,0.00,,,22.18,WeatherCatV1.11B39,2013-01-25 20:30:00,
2013-01-25 15:36:00,21.9,9.8,30.14,SW,225,3.1,3.1,59,0.00,,,22.18,WeatherCatV1.11B39,2013-01-25 20:36:00,
2013-01-25 15:41:00,21.6,9.1,30.14,South,180,0.7,1.6,58,0.00,,,22.18,WeatherCatV1.11B39,2013-01-25 20:41:00,
2013-01-25 15:46:00,21.6,9.5,30.14,South,180,2.2,2.2,59,0.00,,,22.18,WeatherCatV1.11B39,2013-01-25 20:46:00,
2013-01-25 15:51:00,21.6,9.5,30.14,South,180,1.6,1.6,59,0.00,,,22.18,WeatherCatV1.11B39,2013-01-25 20:51:00,
2013-01-25 15:57:00,21.6,9.9,30.14,SSE,157,1.6,1.6,60,0.00,,,22.18,WeatherCatV1.11B39,2013-01-25 20:57:00,
2013-01-25 16:02:00,21.6,10.2,30.14,SW,225,1.6,1.6,61,0.00,,,22.18,WeatherCatV1.11B39,2013-01-25 21:02:00,
2013-01-25 16:07:00,21.4,10.4,30.13,South,180,3.1,3.1,62,0.00,,,22.18,WeatherCatV1.11B39,2013-01-25 21:07:00,
2013-01-25 16:12:00,21.2,10.2,30.13,NW,315,1.6,1.6,62,0.00,,,22.18,WeatherCatV1.11B39,2013-01-25 21:12:00,
2013-01-25 16:18:00,21.2,10.2,30.13,NW,315,1.6,1.6,62,0.00,,,22.18,WeatherCatV1.11B39,2013-01-25 21:18:00,
2013-01-25 16:24:00,21.2,11.0,30.13,SE,135,0.0,0.0,64,0.00,,,22.18,WeatherCatV1.11B39,2013-01-25 21:24:00,
2013-01-25 16:29:00,21.2,11.3,30.12,South,180,1.6,1.6,65,0.00,,,22.18,WeatherCatV1.11B39,2013-01-25 21:29:00,
2013-01-25 16:34:00,21.0,11.5,30.12,South,180,1.6,1.6,66,0.00,,,22.18,WeatherCatV1.11B39,2013-01-25 21:34:00,
2013-01-25 16:39:00,20.8,11.6,30.12,South,180,1.6,1.6,67,0.00,,,22.18,WeatherCatV1.11B39,2013-01-25 21:39:00,
2013-01-25 16:44:00,20.7,11.8,30.11,SW,225,2.2,2.2,68,0.00,,,22.18,WeatherCatV1.11B39,2013-01-25 21:44:00,
2013-01-25 16:50:00,20.5,12.0,30.11,South,180,0.7,1.6,69,0.00,,,22.18,WeatherCatV1.11B39,2013-01-25 21:50:00,
2013-01-25 16:55:00,20.5,12.3,30.10,South,180,1.6,1.6,70,0.00,,,22.18,WeatherCatV1.11B39,2013-01-25 21:55:00,
2013-01-25 17:00:00,20.5,12.9,30.10,South,180,1.6,1.6,72,0.00,,,22.18,WeatherCatV1.11B39,2013-01-25 22:00:00,
2013-01-25 17:05:00,20.5,12.9,30.10,NE,45,0.7,0.7,72,0.00,,,22.18,WeatherCatV1.11B39,2013-01-25 22:05:00,
2013-01-25 17:11:00,20.5,13.2,30.10,South,180,0.7,1.6,73,0.00,,,22.18,WeatherCatV1.11B39,2013-01-25 22:11:00,
2013-01-25 17:16:00,20.5,13.5,30.10,SW,225,0.7,1.6,74,0.00,,,22.18,WeatherCatV1.11B39,2013-01-25 22:16:00,
2013-01-25 17:21:00,20.3,13.7,30.09,South,180,1.6,1.6,75,0.00,,,22.18,WeatherCatV1.11B39,2013-01-25 22:21:00,
2013-01-25 17:27:00,20.3,14.0,30.09,South,180,0.7,0.7,76,0.00,,,22.18,WeatherCatV1.11B39,2013-01-25 22:27:00,
2013-01-25 17:32:00,20.1,13.8,30.08,South,180,1.6,1.6,76,0.00,,,22.18,WeatherCatV1.11B39,2013-01-25 22:32:00,
2013-01-25 17:37:00,20.1,13.8,30.09,South,180,0.0,1.6,76,0.00,,,22.18,WeatherCatV1.11B39,2013-01-25 22:37:00,
2013-01-25 17:42:00,19.9,13.6,30.08,South,180,0.7,0.7,76,0.00,,,22.18,WeatherCatV1.11B39,2013-01-25 22:42:00,
2013-01-25 17:48:00,19.8,13.4,30.08,SW,225,0.7,0.7,76,0.00,,,22.18,WeatherCatV1.11B39,2013-01-25 22:48:00,
2013-01-25 17:53:00,19.8,13.4,30.08,SW,225,0.7,0.7,76,0.00,,,22.18,WeatherCatV1.11B39,2013-01-25 22:53:00,
2013-01-25 17:58:00,19.6,13.3,30.07,SW,225,0.0,0.0,76,0.00,,,22.18,WeatherCatV1.11B39,2013-01-25 22:58:00,
2013-01-25 18:03:00,19.6,13.3,30.08,South,180,0.7,0.7,76,0.00,,,22.18,WeatherCatV1.11B39,2013-01-25 23:03:00,
2013-01-25 18:09:00,19.6,13.3,30.08,South,180,0.0,1.6,76,0.00,,,22.18,WeatherCatV1.11B39,2013-01-25 23:09:00,
2013-01-25 18:14:00,19.6,13.3,30.07,South,180,0.7,0.7,76,0.00,,,22.18,WeatherCatV1.11B39,2013-01-25 23:14:00,
2013-01-25 18:19:00,19.6,13.3,30.07,South,180,0.7,0.7,76,0.00,,,22.18,WeatherCatV1.11B39,2013-01-25 23:19:00,
2013-01-25 18:24:00,19.8,13.4,30.08,South,180,0.0,0.7,76,0.00,,,22.18,WeatherCatV1.11B39,2013-01-25 23:24:00,
2013-01-25 18:30:00,19.9,13.6,30.07,SE,135,0.0,0.0,76,0.00,,,22.18,WeatherCatV1.11B39,2013-01-25 23:30:00,
2013-01-25 18:35:00,19.9,13.6,30.08,SE,135,0.0,0.0,76,0.00,,,22.18,WeatherCatV1.11B39,2013-01-25 23:35:00,
2013-01-25 18:40:00,19.9,13.6,30.08,SE,135,0.7,0.7,76,0.00,,,22.18,WeatherCatV1.11B39,2013-01-25 23:40:00,
2013-01-25 18:46:00,19.9,13.6,30.08,South,180,0.0,0.7,76,0.00,,,22.18,WeatherCatV1.11B39,2013-01-25 23:46:00,
2013-01-25 18:51:00,20.1,13.8,30.07,SW,225,0.7,0.7,76,0.00,,,22.18,WeatherCatV1.11B39,2013-01-25 23:51:00,
2013-01-25 18:56:00,20.1,13.8,30.07,South,180,0.7,0.7,76,0.00,,,22.18,WeatherCatV1.11B39,2013-01-25 23:56:00,
2013-01-25 19:01:00,20.3,14.0,30.07,West,270,0.7,0.7,76,0.00,,,22.18,WeatherCatV1.11B39,2013-01-26 00:01:00,
2013-01-25 19:07:00,20.3,14.0,30.07,West,270,0.7,0.7,76,0.00,,,22.18,WeatherCatV1.11B39,2013-01-26 00:07:00,
2013-01-25 19:12:00,20.5,14.1,30.06,SE,135,1.6,1.6,76,0.00,,,22.18,WeatherCatV1.11B39,2013-01-26 00:12:00,
2013-01-25 19:17:00,20.5,14.1,30.06,South,180,0.0,0.7,76,0.00,,,22.18,WeatherCatV1.11B39,2013-01-26 00:17:00,
2013-01-25 19:22:00,20.5,14.1,30.07,South,180,1.6,1.6,76,0.00,,,22.18,WeatherCatV1.11B39,2013-01-26 00:22:00,
2013-01-25 19:28:00,20.5,14.1,30.07,SW,225,0.7,0.7,76,0.00,,,22.18,WeatherCatV1.11B39,2013-01-26 00:28:00,
2013-01-25 19:33:00,20.5,14.1,30.06,South,180,0.0,0.0,76,0.00,,,22.18,WeatherCatV1.11B39,2013-01-26 00:33:00,
2013-01-25 19:38:00,20.7,14.3,30.06,South,180,0.0,0.7,76,0.00,,,22.18,WeatherCatV1.11B39,2013-01-26 00:38:00,
2013-01-25 19:43:00,20.7,14.3,30.06,West,270,0.7,0.7,76,0.00,,,22.18,WeatherCatV1.11B39,2013-01-26 00:43:00,
2013-01-25 19:49:00,20.7,14.3,30.05,SE,135,0.7,0.7,76,0.00,,,22.18,WeatherCatV1.11B39,2013-01-26 00:49:00,
2013-01-25 19:54:00,20.7,14.3,30.05,South,180,0.7,0.7,76,0.00,,,22.18,WeatherCatV1.11B39,2013-01-26 00:54:00,
2013-01-25 19:59:00,20.8,14.5,30.05,South,180,0.7,0.7,76,0.00,,,22.18,WeatherCatV1.11B39,2013-01-26 00:59:00,
2013-01-25 20:04:00,20.8,14.5,30.05,South,180,0.7,0.7,76,0.00,,,22.18,WeatherCatV1.11B39,2013-01-26 01:04:00,
2013-01-25 20:10:00,20.8,14.5,30.05,South,180,0.7,0.7,76,0.00,,,22.18,WeatherCatV1.11B39,2013-01-26 01:10:00,
2013-01-25 20:17:00,-999.0,-99.9,30.05,North,-999,-999.0,0.7,-999,0.00,,,22.18,WeatherCatV1.11B39,2013-01-26 01:17:00,
2013-01-25 20:22:00,21.0,14.7,30.05,South,180,0.0,0.0,76,0.00,,,22.18,WeatherCatV1.11B39,2013-01-26 01:22:00,
2013-01-25 20:27:00,21.0,14.7,30.05,South,180,0.0,0.0,76,0.00,,,22.18,WeatherCatV1.11B39,2013-01-26 01:27:00,
2013-01-25 20:33:00,-999.0,-99.9,30.05,North,-999,-999.0,0.0,-999,0.00,,,22.18,WeatherCatV1.11B39,2013-01-26 01:33:00,
2013-01-25 20:40:00,-999.0,-99.9,30.05,North,-999,-999.0,0.0,-999,0.00,,,22.18,WeatherCatV1.11B39,2013-01-26 01:40:00,
2013-01-25 20:45:00,21.2,14.2,30.04,South,180,0.0,0.0,74,0.00,,,22.18,WeatherCatV1.11B39,2013-01-26 01:45:00,
2013-01-25 20:50:00,21.2,14.2,30.04,South,180,0.7,0.7,74,0.00,,,22.18,WeatherCatV1.11B39,2013-01-26 01:50:00,
2013-01-25 20:55:00,21.2,14.2,30.04,South,180,0.7,0.7,74,0.00,,,22.18,WeatherCatV1.11B39,2013-01-26 01:55:00,
2013-01-25 21:01:00,-999.0,-99.9,30.04,North,-999,-999.0,0.7,-999,0.00,,,22.18,WeatherCatV1.11B39,2013-01-26 02:01:00,
2013-01-25 21:08:00,21.6,14.6,30.04,South,180,1.6,1.6,74,0.00,,,22.18,WeatherCatV1.11B39,2013-01-26 02:08:00,
2013-01-25 21:13:00,21.6,14.6,30.04,SW,225,1.6,1.6,74,0.00,,,22.18,WeatherCatV1.11B39,2013-01-26 02:13:00,
2013-01-25 21:18:00,21.6,14.6,30.04,North,0,0.7,0.7,74,0.00,,,22.18,WeatherCatV1.11B39,2013-01-26 02:18:00,
2013-01-25 21:24:00,21.6,14.6,30.03,North,0,0.7,0.7,74,0.00,,,22.18,WeatherCatV1.11B39,2013-01-26 02:24:00,
2013-01-25 21:29:00,21.6,14.6,30.04,South,180,0.0,0.0,74,0.00,,,22.18,WeatherCatV1.11B39,2013-01-26 02:29:00,
2013-01-25 21:34:00,21.6,14.6,30.04,South,180,0.0,0.0,74,0.00,,,22.18,WeatherCatV1.11B39,2013-01-26 02:34:00,
2013-01-25 21:39:00,21.6,14.3,30.03,North,0,0.7,0.7,73,0.00,,,22.18,WeatherCatV1.11B39,2013-01-26 02:39:00,
2013-01-25 21:44:00,21.7,14.4,30.03,North,0,0.7,0.7,73,0.00,,,22.18,WeatherCatV1.11B39,2013-01-26 02:44:00,
2013-01-25 21:50:00,21.7,14.4,30.03,South,180,0.7,1.6,73,0.00,,,22.18,WeatherCatV1.11B39,2013-01-26 02:50:00,
2013-01-25 21:55:00,21.7,14.4,30.03,North,0,0.0,1.6,73,0.00,,,22.18,WeatherCatV1.11B39,2013-01-26 02:55:00,
2013-01-25 22:00:00,21.9,14.6,30.03,North,0,0.0,0.7,73,0.00,,,22.18,WeatherCatV1.11B39,2013-01-26 03:00:00,
2013-01-25 22:05:00,21.9,14.3,30.03,East,90,0.7,1.6,72,0.00,,,22.18,WeatherCatV1.11B39,2013-01-26 03:05:00,
2013-01-25 22:11:00,21.9,14.3,30.03,North,0,1.6,2.2,72,0.00,,,22.18,WeatherCatV1.11B39,2013-01-26 03:11:00,
2013-01-25 22:16:00,21.9,14.3,30.03,South,180,0.7,0.7,72,0.00,,,22.18,WeatherCatV1.11B39,2013-01-26 03:16:00,
2013-01-25 22:21:00,21.9,14.3,30.03,NNE,22,1.6,1.6,72,0.00,,,22.18,WeatherCatV1.11B39,2013-01-26 03:21:00,
2013-01-25 22:26:00,21.9,14.3,30.03,NNW,337,1.6,1.6,72,0.00,,,22.18,WeatherCatV1.11B39,2013-01-26 03:26:00,
2013-01-25 22:32:00,21.9,14.3,30.03,NNW,337,1.6,1.6,72,0.00,,,22.18,WeatherCatV1.11B39,2013-01-26 03:32:00,
2013-01-25 22:37:00,21.9,14.3,30.03,SE,135,0.0,0.0,72,0.00,,,22.18,WeatherCatV1.11B39,2013-01-26 03:37:00,
2013-01-25 22:42:00,21.9,14.3,30.03,SE,135,0.0,0.0,72,0.00,,,22.18,WeatherCatV1.11B39,2013-01-26 03:42:00,
2013-01-25 22:48:00,-999.0,-99.9,30.03,North,-999,-999.0,0.0,-999,0.00,,,22.18,WeatherCatV1.11B39,2013-01-26 03:48:00,
2013-01-25 22:55:00,-999.0,-99.9,30.03,North,-999,-999.0,0.0,-999,0.00,,,22.18,WeatherCatV1.11B39,2013-01-26 03:55:00,
2013-01-25 23:02:00,-999.0,-99.9,30.03,North,-999,-999.0,0.0,-999,0.00,,,22.18,WeatherCatV1.11B39,2013-01-26 04:02:00,
2013-01-25 23:09:00,-999.0,-99.9,30.04,North,-999,-999.0,0.0,-999,0.00,,,22.18,WeatherCatV1.11B39,2013-01-26 04:09:00,
2013-01-25 23:14:00,22.3,14.6,30.03,South,180,0.7,0.7,72,0.00,,,22.18,WeatherCatV1.11B39,2013-01-26 04:14:00,
2013-01-25 23:19:00,22.3,14.6,30.04,South,180,0.7,0.7,72,0.00,,,22.18,WeatherCatV1.11B39,2013-01-26 04:19:00,
2013-01-25 23:25:00,-999.0,-99.9,30.04,North,-999,-999.0,0.7,-999,0.00,,,22.18,WeatherCatV1.11B39,2013-01-26 04:25:00,
2013-01-25 23:32:00,-999.0,-99.9,30.03,North,-999,-999.0,0.7,-999,0.00,,,22.18,WeatherCatV1.11B39,2013-01-26 04:32:00,
2013-01-25 23:39:00,-999.0,-99.9,30.04,North,-999,-999.0,0.7,-999,0.00,,,22.18,WeatherCatV1.11B39,2013-01-26 04:39:00,
2013-01-25 23:46:00,-999.0,-99.9,30.04,North,-999,-999.0,0.7,-999,0.00,,,22.18,WeatherCatV1.11B39,2013-01-26 04:46:00,
2013-01-25 23:53:00,-999.0,-99.9,30.04,North,-999,-999.0,0.7,-999,0.00,,,22.18,WeatherCatV1.11B39,2013-01-26 04:53:00,